Jacksonville, Georgia
Current Conditions -  °F | °C
As of 11:55 AM on Friday 28 Nov 2014 (Local Time) from KFZG Reporting Station
Clear Clear  
Wind Chill: 48°   Ceiling: Unl
Heat Index: 48°   Visibility: 10mi
Dew Point: 25°   Wind: 3mph
Humidity: 41%   Direction: 50°NE
Pressure: 30.41"   Gusts: NA
Location:  31.81°N, 82.98°W
Report Text: KFZG 281655Z AUTO 05003KT 10SM CLR 09/M04 A3041 RMK AO2 T00871041
Loading
Personal Weather Stations






























Interactive Weather Map New forecast layout! Learn more

10-Day Weather Forecast

Advertisements
Track Severe Weather on mobile